sensor_id;sensor_type;location;lat;lon;timestamp;P1;durP1;ratioP1;P2;durP2;ratioP2
51194;SDS011;37259;49.972;19.850;2024-01-25T00:00:25;8.3;;;3.2;;
51194;SDS011;37259;49.972;19.850;2024-01-25T00:01:25;8.3;;;3.2;;
51194;SDS011;37259;49.972;19.850;2024-01-25T00:02:25;8.3;;;3.2;;
51194;SDS011;37259;49.972;19.850;2024-01-25T00:03:25;8.3;;;3.2;;
51194;SDS011;37259;49.972;19.850;2024-01-25T00:04:25;8.3;;;3.2;;
51194;SDS011;37259;49.972;19.850;2024-01-25T00:05:25;8.3;;;3.2;;
51194;SDS011;37259;49.972;19.850;2024-01-25T00:06:25;8.3;;;3.2;;
51194;SDS011;37259;49.972;19.850;2024-01-25T00:07:25;8.3;;;3.2;;
51194;SDS011;37259;49.972;19.850;2024-01-25T00:08:25;8.3;;;3.2;;
51194;SDS011;37259;49.972;19.850;2024-01-25T00:09:25;8.3;;;3.2;;
51194;SDS011;37259;49.972;19.850;2024-01-25T00:10:25;8.3;;;3.2;;
51194;SDS011;37259;49.972;19.850;2024-01-25T00:11:26;8.3;;;3.2;;
51194;SDS011;37259;49.972;19.850;2024-01-25T00:12:25;8.3;;;3.2;;
51194;SDS011;37259;49.972;19.850;2024-01-25T00:13:25;8.3;;;3.2;;
51194;SDS011;37259;49.972;19.850;2024-01-25T00:14:25;8.3;;;3.2;;
51194;SDS011;37259;49.972;19.850;2024-01-25T00:15:25;8.3;;;3.2;;
51194;SDS011;37259;49.972;19.850;2024-01-25T00:16:25;8.3;;;3.2;;
51194;SDS011;37259;49.972;19.850;2024-01-25T00:17:25;8.3;;;3.2;;
51194;SDS011;37259;49.972;19.850;2024-01-25T00:18:25;8.3;;;3.2;;
51194;SDS011;37259;49.972;19.850;2024-01-25T00:19:25;8.3;;;3.2;;
51194;SDS011;37259;49.972;19.850;2024-01-25T00:20:25;6.2;;;3.4;;
51194;SDS011;37259;49.972;19.850;2024-01-25T00:21:25;6.2;;;3.4;;
51194;SDS011;37259;49.972;19.850;2024-01-25T00:22:26;6.2;;;3.4;;
51194;SDS011;37259;49.972;19.850;2024-01-25T00:23:25;6.2;;;3.4;;
51194;SDS011;37259;49.972;19.850;2024-01-25T00:24:25;6.2;;;3.4;;
51194;SDS011;37259;49.972;19.850;2024-01-25T00:25:25;6.2;;;3.4;;
51194;SDS011;37259;49.972;19.850;2024-01-25T00:26:25;6.2;;;3.4;;
51194;SDS011;37259;49.972;19.850;2024-01-25T00:27:25;6.2;;;3.4;;
51194;SDS011;37259;49.972;19.850;2024-01-25T00:28:25;6.2;;;3.4;;
51194;SDS011;37259;49.972;19.850;2024-01-25T00:29:25;6.2;;;3.4;;
51194;SDS011;37259;49.972;19.850;2024-01-25T00:30:25;6.2;;;3.4;;
51194;SDS011;37259;49.972;19.850;2024-01-25T00:31:25;6.2;;;3.4;;
51194;SDS011;37259;49.972;19.850;2024-01-25T00:32:25;6.2;;;3.4;;
51194;SDS011;37259;49.972;19.850;2024-01-25T00:33:25;6.2;;;3.4;;
51194;SDS011;37259;49.972;19.850;2024-01-25T00:34:25;6.2;;;3.4;;
51194;SDS011;37259;49.972;19.850;2024-01-25T00:35:25;6.2;;;3.4;;
51194;SDS011;37259;49.972;19.850;2024-01-25T00:36:25;6.2;;;3.4;;
51194;SDS011;37259;49.972;19.850;2024-01-25T00:37:25;6.2;;;3.4;;
51194;SDS011;37259;49.972;19.850;2024-01-25T00:38:25;6.2;;;3.4;;
51194;SDS011;37259;49.972;19.850;2024-01-25T00:39:25;6.2;;;3.4;;
51194;SDS011;37259;49.972;19.850;2024-01-25T00:40:25;6.2;;;3.4;;
51194;SDS011;37259;49.972;19.850;2024-01-25T00:41:25;6.2;;;3.4;;
51194;SDS011;37259;49.972;19.850;2024-01-25T00:42:25;6.2;;;3.4;;
51194;SDS011;37259;49.972;19.850;2024-01-25T00:43:25;6.2;;;3.4;;
51194;SDS011;37259;49.972;19.850;2024-01-25T00:44:25;6.2;;;3.4;;
51194;SDS011;37259;49.972;19.850;2024-01-25T00:45:25;6.2;;;3.4;;
51194;SDS011;37259;49.972;19.850;2024-01-25T00:46:25;6.2;;;3.4;;
51194;SDS011;37259;49.972;19.850;2024-01-25T00:47:25;6.2;;;3.4;;
51194;SDS011;37259;49.972;19.850;2024-01-25T00:48:25;6.2;;;3.4;;
51194;SDS011;37259;49.972;19.850;2024-01-25T00:49:25;6.2;;;3.4;;
51194;SDS011;37259;49.972;19.850;2024-01-25T00:50:25;10;;;3.3;;
51194;SDS011;37259;49.972;19.850;2024-01-25T00:51:25;10;;;3.3;;
51194;SDS011;37259;49.972;19.850;2024-01-25T00:52:25;10;;;3.3;;
51194;SDS011;37259;49.972;19.850;2024-01-25T00:53:25;10;;;3.3;;
51194;SDS011;37259;49.972;19.850;2024-01-25T00:54:25;10;;;3.3;;
51194;SDS011;37259;49.972;19.850;2024-01-25T00:55:25;10;;;3.3;;
51194;SDS011;37259;49.972;19.850;2024-01-25T00:56:25;10;;;3.3;;
51194;SDS011;37259;49.972;19.850;2024-01-25T00:57:25;10;;;3.3;;
51194;SDS011;37259;49.972;19.850;2024-01-25T00:58:25;10;;;3.3;;
51194;SDS011;37259;49.972;19.850;2024-01-25T00:59:25;10;;;3.3;;
51194;SDS011;37259;49.972;19.850;2024-01-25T01:00:25;10;;;3.3;;
51194;SDS011;37259;49.972;19.850;2024-01-25T01:01:25;10;;;3.3;;
51194;SDS011;37259;49.972;19.850;2024-01-25T01:02:25;10;;;3.3;;
51194;SDS011;37259;49.972;19.850;2024-01-25T01:03:25;10;;;3.3;;
51194;SDS011;37259;49.972;19.850;2024-01-25T01:04:25;10;;;3.3;;
51194;SDS011;37259;49.972;19.850;2024-01-25T01:05:25;10;;;3.3;;
51194;SDS011;37259;49.972;19.850;2024-01-25T01:06:25;10;;;3.3;;
51194;SDS011;37259;49.972;19.850;2024-01-25T01:07:25;10;;;3.3;;
51194;SDS011;37259;49.972;19.850;2024-01-25T01:08:25;10;;;3.3;;
51194;SDS011;37259;49.972;19.850;2024-01-25T01:09:25;10;;;3.3;;
51194;SDS011;37259;49.972;19.850;2024-01-25T01:10:25;10;;;3.3;;
51194;SDS011;37259;49.972;19.850;2024-01-25T01:11:25;10;;;3.3;;
51194;SDS011;37259;49.972;19.850;2024-01-25T01:12:25;10;;;3.3;;
51194;SDS011;37259;49.972;19.850;2024-01-25T01:13:25;10;;;3.3;;
51194;SDS011;37259;49.972;19.850;2024-01-25T01:14:25;10;;;3.3;;
51194;SDS011;37259;49.972;19.850;2024-01-25T01:15:25;10;;;3.3;;
51194;SDS011;37259;49.972;19.850;2024-01-25T01:16:25;10;;;3.3;;
51194;SDS011;37259;49.972;19.850;2024-01-25T01:17:25;10;;;3.3;;
51194;SDS011;37259;49.972;19.850;2024-01-25T01:18:25;10;;;3.3;;
51194;SDS011;37259;49.972;19.850;2024-01-25T01:19:25;10;;;3.3;;
51194;SDS011;37259;49.972;19.850;2024-01-25T01:20:25;3.4;;;2.2;;
51194;SDS011;37259;49.972;19.850;2024-01-25T01:21:25;3.4;;;2.2;;
51194;SDS011;37259;49.972;19.850;2024-01-25T01:22:25;3.4;;;2.2;;
51194;SDS011;37259;49.972;19.850;2024-01-25T01:23:25;3.4;;;2.2;;
51194;SDS011;37259;49.972;19.850;2024-01-25T01:24:25;3.4;;;2.2;;
51194;SDS011;37259;49.972;19.850;2024-01-25T01:25:25;3.4;;;2.2;;
51194;SDS011;37259;49.972;19.850;2024-01-25T01:26:25;3.4;;;2.2;;
51194;SDS011;37259;49.972;19.850;2024-01-25T01:27:25;3.4;;;2.2;;
51194;SDS011;37259;49.972;19.850;2024-01-25T01:28:26;3.4;;;2.2;;
51194;SDS011;37259;49.972;19.850;2024-01-25T01:29:25;3.4;;;2.2;;
51194;SDS011;37259;49.972;19.850;2024-01-25T01:30:25;3.4;;;2.2;;
51194;SDS011;37259;49.972;19.850;2024-01-25T01:31:25;3.4;;;2.2;;
51194;SDS011;37259;49.972;19.850;2024-01-25T01:32:25;3.4;;;2.2;;
51194;SDS011;37259;49.972;19.850;2024-01-25T01:33:25;3.4;;;2.2;;
51194;SDS011;37259;49.972;19.850;2024-01-25T01:34:25;3.4;;;2.2;;
51194;SDS011;37259;49.972;19.850;2024-01-25T01:35:25;3.4;;;2.2;;
51194;SDS011;37259;49.972;19.850;2024-01-25T01:36:25;3.4;;;2.2;;
51194;SDS011;37259;49.972;19.850;2024-01-25T01:37:25;3.4;;;2.2;;
51194;SDS011;37259;49.972;19.850;2024-01-25T01:38:25;3.4;;;2.2;;
51194;SDS011;37259;49.972;19.850;2024-01-25T01:39:25;3.4;;;2.2;;
51194;SDS011;37259;49.972;19.850;2024-01-25T01:40:25;3.4;;;2.2;;
51194;SDS011;37259;49.972;19.850;2024-01-25T01:41:25;3.4;;;2.2;;
51194;SDS011;37259;49.972;19.850;2024-01-25T01:42:25;3.4;;;2.2;;
51194;SDS011;37259;49.972;19.850;2024-01-25T01:43:25;3.4;;;2.2;;
51194;SDS011;37259;49.972;19.850;2024-01-25T01:44:25;3.4;;;2.2;;
51194;SDS011;37259;49.972;19.850;2024-01-25T01:45:25;3.4;;;2.2;;
51194;SDS011;37259;49.972;19.850;2024-01-25T01:46:29;3.4;;;2.2;;
51194;SDS011;37259;49.972;19.850;2024-01-25T01:47:25;3.4;;;2.2;;
51194;SDS011;37259;49.972;19.850;2024-01-25T01:48:25;3.4;;;2.2;;
51194;SDS011;37259;49.972;19.850;2024-01-25T01:49:25;3.4;;;2.2;;
51194;SDS011;37259;49.972;19.850;2024-01-25T01:50:25;6.2;;;3.3;;
51194;SDS011;37259;49.972;19.850;2024-01-25T01:51:25;6.2;;;3.3;;
51194;SDS011;37259;49.972;19.850;2024-01-25T01:52:25;6.2;;;3.3;;
51194;SDS011;37259;49.972;19.850;2024-01-25T01:53:25;6.2;;;3.3;;
51194;SDS011;37259;49.972;19.850;2024-01-25T01:54:25;6.2;;;3.3;;
51194;SDS011;37259;49.972;19.850;2024-01-25T01:55:25;6.2;;;3.3;;
51194;SDS011;37259;49.972;19.850;2024-01-25T01:56:25;6.2;;;3.3;;
51194;SDS011;37259;49.972;19.850;2024-01-25T01:57:25;6.2;;;3.3;;
51194;SDS011;37259;49.972;19.850;2024-01-25T01:58:25;6.2;;;3.3;;
51194;SDS011;37259;49.972;19.850;2024-01-25T01:59:25;6.2;;;3.3;;
51194;SDS011;37259;49.972;19.850;2024-01-25T02:00:25;6.2;;;3.3;;
51194;SDS011;37259;49.972;19.850;2024-01-25T02:01:25;6.2;;;3.3;;
51194;SDS011;37259;49.972;19.850;2024-01-25T02:02:25;6.2;;;3.3;;
51194;SDS011;37259;49.972;19.850;2024-01-25T02:03:25;6.2;;;3.3;;
51194;SDS011;37259;49.972;19.850;2024-01-25T02:04:25;6.2;;;3.3;;
51194;SDS011;37259;49.972;19.850;2024-01-25T02:05:25;6.2;;;3.3;;
51194;SDS011;37259;49.972;19.850;2024-01-25T02:06:25;6.2;;;3.3;;
51194;SDS011;37259;49.972;19.850;2024-01-25T02:07:25;6.2;;;3.3;;
51194;SDS011;37259;49.972;19.850;2024-01-25T02:08:25;6.2;;;3.3;;
51194;SDS011;37259;49.972;19.850;2024-01-25T02:09:25;6.2;;;3.3;;
51194;SDS011;37259;49.972;19.850;2024-01-25T02:10:25;6.2;;;3.3;;
51194;SDS011;37259;49.972;19.850;2024-01-25T02:11:25;6.2;;;3.3;;
51194;SDS011;37259;49.972;19.850;2024-01-25T02:12:25;6.2;;;3.3;;
51194;SDS011;37259;49.972;19.850;2024-01-25T02:13:25;6.2;;;3.3;;
51194;SDS011;37259;49.972;19.850;2024-01-25T02:14:25;6.2;;;3.3;;
51194;SDS011;37259;49.972;19.850;2024-01-25T02:15:25;6.2;;;3.3;;
51194;SDS011;37259;49.972;19.850;2024-01-25T02:16:25;6.2;;;3.3;;
51194;SDS011;37259;49.972;19.850;2024-01-25T02:17:25;6.2;;;3.3;;
51194;SDS011;37259;49.972;19.850;2024-01-25T02:18:25;6.2;;;3.3;;
51194;SDS011;37259;49.972;19.850;2024-01-25T02:19:25;6.2;;;3.3;;
51194;SDS011;37259;49.972;19.850;2024-01-25T02:20:25;5;;;2.2;;
51194;SDS011;37259;49.972;19.850;2024-01-25T02:21:25;5;;;2.2;;
51194;SDS011;37259;49.972;19.850;2024-01-25T02:22:25;5;;;2.2;;
51194;SDS011;37259;49.972;19.850;2024-01-25T02:23:25;5;;;2.2;;
51194;SDS011;37259;49.972;19.850;2024-01-25T02:24:25;5;;;2.2;;
51194;SDS011;37259;49.972;19.850;2024-01-25T02:25:25;5;;;2.2;;
51194;SDS011;37259;49.972;19.850;2024-01-25T02:26:25;5;;;2.2;;
51194;SDS011;37259;49.972;19.850;2024-01-25T02:27:25;5;;;2.2;;
51194;SDS011;37259;49.972;19.850;2024-01-25T02:28:25;5;;;2.2;;
51194;SDS011;37259;49.972;19.850;2024-01-25T02:29:25;5;;;2.2;;
51194;SDS011;37259;49.972;19.850;2024-01-25T02:30:25;5;;;2.2;;
51194;SDS011;37259;49.972;19.850;2024-01-25T02:31:25;5;;;2.2;;
51194;SDS011;37259;49.972;19.850;2024-01-25T02:32:25;5;;;2.2;;
51194;SDS011;37259;49.972;19.850;2024-01-25T02:33:25;5;;;2.2;;
51194;SDS011;37259;49.972;19.850;2024-01-25T02:34:27;5;;;2.2;;
51194;SDS011;37259;49.972;19.850;2024-01-25T02:35:25;5;;;2.2;;
51194;SDS011;37259;49.972;19.850;2024-01-25T02:36:25;5;;;2.2;;
51194;SDS011;37259;49.972;19.850;2024-01-25T02:37:25;5;;;2.2;;
51194;SDS011;37259;49.972;19.850;2024-01-25T02:38:25;5;;;2.2;;
51194;SDS011;37259;49.972;19.850;2024-01-25T02:39:25;5;;;2.2;;
51194;SDS011;37259;49.972;19.850;2024-01-25T02:40:25;5;;;2.2;;
51194;SDS011;37259;49.972;19.850;2024-01-25T02:41:25;5;;;2.2;;
51194;SDS011;37259;49.972;19.850;2024-01-25T02:42:25;5;;;2.2;;
51194;SDS011;37259;49.972;19.850;2024-01-25T02:43:25;5;;;2.2;;
51194;SDS011;37259;49.972;19.850;2024-01-25T02:44:25;5;;;2.2;;
51194;SDS011;37259;49.972;19.850;2024-01-25T02:45:25;5;;;2.2;;
51194;SDS011;37259;49.972;19.850;2024-01-25T02:46:25;5;;;2.2;;
51194;SDS011;37259;49.972;19.850;2024-01-25T02:47:25;5;;;2.2;;
51194;SDS011;37259;49.972;19.850;2024-01-25T02:48:25;5;;;2.2;;
51194;SDS011;37259;49.972;19.850;2024-01-25T02:49:25;5;;;2.2;;
51194;SDS011;37259;49.972;19.850;2024-01-25T02:50:25;6.4;;;1.9;;
51194;SDS011;37259;49.972;19.850;2024-01-25T02:51:25;6.4;;;1.9;;
51194;SDS011;37259;49.972;19.850;2024-01-25T02:52:25;6.4;;;1.9;;
51194;SDS011;37259;49.972;19.850;2024-01-25T02:53:25;6.4;;;1.9;;
51194;SDS011;37259;49.972;19.850;2024-01-25T02:54:25;6.4;;;1.9;;
51194;SDS011;37259;49.972;19.850;2024-01-25T02:55:25;6.4;;;1.9;;
51194;SDS011;37259;49.972;19.850;2024-01-25T02:56:25;6.4;;;1.9;;
51194;SDS011;37259;49.972;19.850;2024-01-25T02:57:25;6.4;;;1.9;;
51194;SDS011;37259;49.972;19.850;2024-01-25T02:58:25;6.4;;;1.9;;
51194;SDS011;37259;49.972;19.850;2024-01-25T02:59:25;6.4;;;1.9;;
51194;SDS011;37259;49.972;19.850;2024-01-25T03:00:25;6.4;;;1.9;;
51194;SDS011;37259;49.972;19.850;2024-01-25T03:01:25;6.4;;;1.9;;
51194;SDS011;37259;49.972;19.850;2024-01-25T03:02:25;6.4;;;1.9;;
51194;SDS011;37259;49.972;19.850;2024-01-25T03:03:25;6.4;;;1.9;;
51194;SDS011;37259;49.972;19.850;2024-01-25T03:04:25;6.4;;;1.9;;
51194;SDS011;37259;49.972;19.850;2024-01-25T03:05:25;6.4;;;1.9;;
51194;SDS011;37259;49.972;19.850;2024-01-25T03:06:25;6.4;;;1.9;;
51194;SDS011;37259;49.972;19.850;2024-01-25T03:07:25;6.4;;;1.9;;
51194;SDS011;37259;49.972;19.850;2024-01-25T03:08:25;6.4;;;1.9;;
51194;SDS011;37259;49.972;19.850;2024-01-25T03:09:25;6.4;;;1.9;;
51194;SDS011;37259;49.972;19.850;2024-01-25T03:10:25;6.4;;;1.9;;
51194;SDS011;37259;49.972;19.850;2024-01-25T03:11:25;6.4;;;1.9;;
51194;SDS011;37259;49.972;19.850;2024-01-25T03:12:25;6.4;;;1.9;;
51194;SDS011;37259;49.972;19.850;2024-01-25T03:13:25;6.4;;;1.9;;
51194;SDS011;37259;49.972;19.850;2024-01-25T03:14:25;6.4;;;1.9;;
51194;SDS011;37259;49.972;19.850;2024-01-25T03:15:25;6.4;;;1.9;;
51194;SDS011;37259;49.972;19.850;2024-01-25T03:16:25;6.4;;;1.9;;
51194;SDS011;37259;49.972;19.850;2024-01-25T03:17:25;6.4;;;1.9;;
51194;SDS011;37259;49.972;19.850;2024-01-25T03:18:25;6.4;;;1.9;;
51194;SDS011;37259;49.972;19.850;2024-01-25T03:19:25;6.4;;;1.9;;
51194;SDS011;37259;49.972;19.850;2024-01-25T03:20:25;5.6;;;2.3;;
51194;SDS011;37259;49.972;19.850;2024-01-25T03:21:25;5.6;;;2.3;;
51194;SDS011;37259;49.972;19.850;2024-01-25T03:22:25;5.6;;;2.3;;
51194;SDS011;37259;49.972;19.850;2024-01-25T03:23:25;5.6;;;2.3;;
51194;SDS011;37259;49.972;19.850;2024-01-25T03:24:25;5.6;;;2.3;;
51194;SDS011;37259;49.972;19.850;2024-01-25T03:25:25;5.6;;;2.3;;
51194;SDS011;37259;49.972;19.850;2024-01-25T03:26:26;5.6;;;2.3;;
51194;SDS011;37259;49.972;19.850;2024-01-25T03:27:25;5.6;;;2.3;;
51194;SDS011;37259;49.972;19.850;2024-01-25T03:28:25;5.6;;;2.3;;
51194;SDS011;37259;49.972;19.850;2024-01-25T03:29:25;5.6;;;2.3;;
51194;SDS011;37259;49.972;19.850;2024-01-25T03:30:25;5.6;;;2.3;;
51194;SDS011;37259;49.972;19.850;2024-01-25T03:31:25;5.6;;;2.3;;
51194;SDS011;37259;49.972;19.850;2024-01-25T03:32:25;5.6;;;2.3;;
51194;SDS011;37259;49.972;19.850;2024-01-25T03:33:25;5.6;;;2.3;;
51194;SDS011;37259;49.972;19.850;2024-01-25T03:34:25;5.6;;;2.3;;
51194;SDS011;37259;49.972;19.850;2024-01-25T03:35:25;5.6;;;2.3;;
51194;SDS011;37259;49.972;19.850;2024-01-25T03:36:25;5.6;;;2.3;;
51194;SDS011;37259;49.972;19.850;2024-01-25T03:37:25;5.6;;;2.3;;
51194;SDS011;37259;49.972;19.850;2024-01-25T03:38:25;5.6;;;2.3;;
51194;SDS011;37259;49.972;19.850;2024-01-25T03:39:25;5.6;;;2.3;;
51194;SDS011;37259;49.972;19.850;2024-01-25T03:40:25;5.6;;;2.3;;
51194;SDS011;37259;49.972;19.850;2024-01-25T03:41:25;5.6;;;2.3;;
51194;SDS011;37259;49.972;19.850;2024-01-25T03:42:25;5.6;;;2.3;;
51194;SDS011;37259;49.972;19.850;2024-01-25T03:43:25;5.6;;;2.3;;
51194;SDS011;37259;49.972;19.850;2024-01-25T03:44:25;5.6;;;2.3;;
51194;SDS011;37259;49.972;19.850;2024-01-25T03:45:25;5.6;;;2.3;;
51194;SDS011;37259;49.972;19.850;2024-01-25T03:46:25;5.6;;;2.3;;
51194;SDS011;37259;49.972;19.850;2024-01-25T03:47:25;5.6;;;2.3;;
51194;SDS011;37259;49.972;19.850;2024-01-25T03:48:25;5.6;;;2.3;;
51194;SDS011;37259;49.972;19.850;2024-01-25T03:49:26;5.6;;;2.3;;
51194;SDS011;37259;49.972;19.850;2024-01-25T03:50:26;4.9;;;2.5;;
51194;SDS011;37259;49.972;19.850;2024-01-25T03:51:25;4.9;;;2.5;;
51194;SDS011;37259;49.972;19.850;2024-01-25T03:52:25;4.9;;;2.5;;
51194;SDS011;37259;49.972;19.850;2024-01-25T03:53:25;4.9;;;2.5;;
51194;SDS011;37259;49.972;19.850;2024-01-25T03:54:25;4.9;;;2.5;;
51194;SDS011;37259;49.972;19.850;2024-01-25T03:55:25;4.9;;;2.5;;
51194;SDS011;37259;49.972;19.850;2024-01-25T03:56:25;4.9;;;2.5;;
51194;SDS011;37259;49.972;19.850;2024-01-25T03:57:25;4.9;;;2.5;;
51194;SDS011;37259;49.972;19.850;2024-01-25T03:58:25;4.9;;;2.5;;
51194;SDS011;37259;49.972;19.850;2024-01-25T03:59:25;4.9;;;2.5;;
51194;SDS011;37259;49.972;19.850;2024-01-25T04:00:26;4.9;;;2.5;;
51194;SDS011;37259;49.972;19.850;2024-01-25T04:01:25;4.9;;;2.5;;
51194;SDS011;37259;49.972;19.850;2024-01-25T04:02:25;4.9;;;2.5;;
51194;SDS011;37259;49.972;19.850;2024-01-25T04:03:25;4.9;;;2.5;;
51194;SDS011;37259;49.972;19.850;2024-01-25T04:04:25;4.9;;;2.5;;
51194;SDS011;37259;49.972;19.850;2024-01-25T04:05:25;4.9;;;2.5;;
51194;SDS011;37259;49.972;19.850;2024-01-25T04:06:25;4.9;;;2.5;;
51194;SDS011;37259;49.972;19.850;2024-01-25T04:07:25;4.9;;;2.5;;
51194;SDS011;37259;49.972;19.850;2024-01-25T04:08:25;4.9;;;2.5;;
51194;SDS011;37259;49.972;19.850;2024-01-25T04:09:25;4.9;;;2.5;;
51194;SDS011;37259;49.972;19.850;2024-01-25T04:10:25;4.9;;;2.5;;
51194;SDS011;37259;49.972;19.850;2024-01-25T04:11:26;4.9;;;2.5;;
51194;SDS011;37259;49.972;19.850;2024-01-25T04:12:25;4.9;;;2.5;;
51194;SDS011;37259;49.972;19.850;2024-01-25T04:13:25;4.9;;;2.5;;
51194;SDS011;37259;49.972;19.850;2024-01-25T04:14:25;4.9;;;2.5;;
51194;SDS011;37259;49.972;19.850;2024-01-25T04:15:25;4.9;;;2.5;;
51194;SDS011;37259;49.972;19.850;2024-01-25T04:16:25;4.9;;;2.5;;
51194;SDS011;37259;49.972;19.850;2024-01-25T04:17:25;4.9;;;2.5;;
51194;SDS011;37259;49.972;19.850;2024-01-25T04:18:25;4.9;;;2.5;;
51194;SDS011;37259;49.972;19.850;2024-01-25T04:19:25;4.9;;;2.5;;
51194;SDS011;37259;49.972;19.850;2024-01-25T04:20:25;5.9;;;2.9;;
51194;SDS011;37259;49.972;19.850;2024-01-25T04:21:25;5.9;;;2.9;;
51194;SDS011;37259;49.972;19.850;2024-01-25T04:22:25;5.9;;;2.9;;
51194;SDS011;37259;49.972;19.850;2024-01-25T04:23:25;5.9;;;2.9;;
51194;SDS011;37259;49.972;19.850;2024-01-25T04:24:25;5.9;;;2.9;;
51194;SDS011;37259;49.972;19.850;2024-01-25T04:25:25;5.9;;;2.9;;
51194;SDS011;37259;49.972;19.850;2024-01-25T04:26:25;5.9;;;2.9;;
51194;SDS011;37259;49.972;19.850;2024-01-25T04:27:25;5.9;;;2.9;;
51194;SDS011;37259;49.972;19.850;2024-01-25T04:28:25;5.9;;;2.9;;
51194;SDS011;37259;49.972;19.850;2024-01-25T04:29:25;5.9;;;2.9;;
51194;SDS011;37259;49.972;19.850;2024-01-25T04:30:25;5.9;;;2.9;;
51194;SDS011;37259;49.972;19.850;2024-01-25T04:31:25;5.9;;;2.9;;
51194;SDS011;37259;49.972;19.850;2024-01-25T04:32:25;5.9;;;2.9;;
51194;SDS011;37259;49.972;19.850;2024-01-25T04:33:25;5.9;;;2.9;;
51194;SDS011;37259;49.972;19.850;2024-01-25T04:34:25;5.9;;;2.9;;
51194;SDS011;37259;49.972;19.850;2024-01-25T04:35:25;5.9;;;2.9;;
51194;SDS011;37259;49.972;19.850;2024-01-25T04:36:25;5.9;;;2.9;;
51194;SDS011;37259;49.972;19.850;2024-01-25T04:37:25;5.9;;;2.9;;
51194;SDS011;37259;49.972;19.850;2024-01-25T04:38:25;5.9;;;2.9;;
51194;SDS011;37259;49.972;19.850;2024-01-25T04:39:25;5.9;;;2.9;;
51194;SDS011;37259;49.972;19.850;2024-01-25T04:40:25;5.9;;;2.9;;
51194;SDS011;37259;49.972;19.850;2024-01-25T04:41:25;5.9;;;2.9;;
51194;SDS011;37259;49.972;19.850;2024-01-25T04:42:25;5.9;;;2.9;;
51194;SDS011;37259;49.972;19.850;2024-01-25T04:43:25;5.9;;;2.9;;
51194;SDS011;37259;49.972;19.850;2024-01-25T04:44:25;5.9;;;2.9;;
51194;SDS011;37259;49.972;19.850;2024-01-25T04:45:25;5.9;;;2.9;;
51194;SDS011;37259;49.972;19.850;2024-01-25T04:46:25;5.9;;;2.9;;
51194;SDS011;37259;49.972;19.850;2024-01-25T04:47:25;5.9;;;2.9;;
51194;SDS011;37259;49.972;19.850;2024-01-25T04:48:25;5.9;;;2.9;;
51194;SDS011;37259;49.972;19.850;2024-01-25T04:49:25;5.9;;;2.9;;
51194;SDS011;37259;49.972;19.850;2024-01-25T04:50:25;6.6;;;2.4;;
51194;SDS011;37259;49.972;19.850;2024-01-25T04:51:25;6.6;;;2.4;;
51194;SDS011;37259;49.972;19.850;2024-01-25T04:52:25;6.6;;;2.4;;
51194;SDS011;37259;49.972;19.850;2024-01-25T04:53:25;6.6;;;2.4;;
51194;SDS011;37259;49.972;19.850;2024-01-25T04:54:25;6.6;;;2.4;;
51194;SDS011;37259;49.972;19.850;2024-01-25T04:55:25;6.6;;;2.4;;
51194;SDS011;37259;49.972;19.850;2024-01-25T04:56:25;6.6;;;2.4;;
51194;SDS011;37259;49.972;19.850;2024-01-25T04:57:25;6.6;;;2.4;;
51194;SDS011;37259;49.972;19.850;2024-01-25T04:58:25;6.6;;;2.4;;
51194;SDS011;37259;49.972;19.850;2024-01-25T04:59:25;6.6;;;2.4;;
51194;SDS011;37259;49.972;19.850;2024-01-25T05:00:25;6.6;;;2.4;;
51194;SDS011;37259;49.972;19.850;2024-01-25T05:01:25;6.6;;;2.4;;
51194;SDS011;37259;49.972;19.850;2024-01-25T05:02:25;6.6;;;2.4;;
51194;SDS011;37259;49.972;19.850;2024-01-25T05:03:25;6.6;;;2.4;;
51194;SDS011;37259;49.972;19.850;2024-01-25T05:04:25;6.6;;;2.4;;
51194;SDS011;37259;49.972;19.850;2024-01-25T05:05:25;6.6;;;2.4;;
51194;SDS011;37259;49.972;19.850;2024-01-25T05:06:25;6.6;;;2.4;;
51194;SDS011;37259;49.972;19.850;2024-01-25T05:07:25;6.6;;;2.4;;
51194;SDS011;37259;49.972;19.850;2024-01-25T05:08:26;6.6;;;2.4;;
51194;SDS011;37259;49.972;19.850;2024-01-25T05:09:25;6.6;;;2.4;;
51194;SDS011;37259;49.972;19.850;2024-01-25T05:10:25;6.6;;;2.4;;
51194;SDS011;37259;49.972;19.850;2024-01-25T05:11:25;6.6;;;2.4;;
51194;SDS011;37259;49.972;19.850;2024-01-25T05:12:25;6.6;;;2.4;;
51194;SDS011;37259;49.972;19.850;2024-01-25T05:13:25;6.6;;;2.4;;
51194;SDS011;37259;49.972;19.850;2024-01-25T05:14:25;6.6;;;2.4;;
51194;SDS011;37259;49.972;19.850;2024-01-25T05:15:25;6.6;;;2.4;;
51194;SDS011;37259;49.972;19.850;2024-01-25T05:16:27;6.6;;;2.4;;
51194;SDS011;37259;49.972;19.850;2024-01-25T05:17:25;6.6;;;2.4;;
51194;SDS011;37259;49.972;19.850;2024-01-25T05:18:25;6.6;;;2.4;;
51194;SDS011;37259;49.972;19.850;2024-01-25T05:19:25;6.6;;;2.4;;
51194;SDS011;37259;49.972;19.850;2024-01-25T05:20:25;4.4;;;1.7;;
51194;SDS011;37259;49.972;19.850;2024-01-25T05:21:25;4.4;;;1.7;;
51194;SDS011;37259;49.972;19.850;2024-01-25T05:22:25;4.4;;;1.7;;
51194;SDS011;37259;49.972;19.850;2024-01-25T05:23:25;4.4;;;1.7;;
51194;SDS011;37259;49.972;19.850;2024-01-25T05:24:25;4.4;;;1.7;;
51194;SDS011;37259;49.972;19.850;2024-01-25T05:25:25;4.4;;;1.7;;
51194;SDS011;37259;49.972;19.850;2024-01-25T05:26:25;4.4;;;1.7;;
51194;SDS011;37259;49.972;19.850;2024-01-25T05:27:25;4.4;;;1.7;;
51194;SDS011;37259;49.972;19.850;2024-01-25T05:28:25;4.4;;;1.7;;
51194;SDS011;37259;49.972;19.850;2024-01-25T05:29:25;4.4;;;1.7;;
51194;SDS011;37259;49.972;19.850;2024-01-25T05:30:25;4.4;;;1.7;;
51194;SDS011;37259;49.972;19.850;2024-01-25T05:31:25;4.4;;;1.7;;
51194;SDS011;37259;49.972;19.850;2024-01-25T05:32:25;4.4;;;1.7;;
51194;SDS011;37259;49.972;19.850;2024-01-25T05:33:25;4.4;;;1.7;;
51194;SDS011;37259;49.972;19.850;2024-01-25T05:34:25;4.4;;;1.7;;
51194;SDS011;37259;49.972;19.850;2024-01-25T05:35:25;4.4;;;1.7;;
51194;SDS011;37259;49.972;19.850;2024-01-25T05:36:25;4.4;;;1.7;;
51194;SDS011;37259;49.972;19.850;2024-01-25T05:37:25;4.4;;;1.7;;
51194;SDS011;37259;49.972;19.850;2024-01-25T05:38:25;4.4;;;1.7;;
51194;SDS011;37259;49.972;19.850;2024-01-25T05:39:25;4.4;;;1.7;;
51194;SDS011;37259;49.972;19.850;2024-01-25T05:40:25;4.4;;;1.7;;
51194;SDS011;37259;49.972;19.850;2024-01-25T05:41:25;4.4;;;1.7;;
51194;SDS011;37259;49.972;19.850;2024-01-25T05:42:25;4.4;;;1.7;;
51194;SDS011;37259;49.972;19.850;2024-01-25T05:43:25;4.4;;;1.7;;
51194;SDS011;37259;49.972;19.850;2024-01-25T05:44:25;4.4;;;1.7;;
51194;SDS011;37259;49.972;19.850;2024-01-25T05:45:25;4.4;;;1.7;;
51194;SDS011;37259;49.972;19.850;2024-01-25T05:46:25;4.4;;;1.7;;
51194;SDS011;37259;49.972;19.850;2024-01-25T05:47:25;4.4;;;1.7;;
51194;SDS011;37259;49.972;19.850;2024-01-25T05:48:25;4.4;;;1.7;;
51194;SDS011;37259;49.972;19.850;2024-01-25T05:49:25;4.4;;;1.7;;
51194;SDS011;37259;49.972;19.850;2024-01-25T05:50:25;4.9;;;2.3;;
51194;SDS011;37259;49.972;19.850;2024-01-25T05:51:25;4.9;;;2.3;;
51194;SDS011;37259;49.972;19.850;2024-01-25T05:52:25;4.9;;;2.3;;
51194;SDS011;37259;49.972;19.850;2024-01-25T05:53:25;4.9;;;2.3;;
51194;SDS011;37259;49.972;19.850;2024-01-25T05:54:25;4.9;;;2.3;;
51194;SDS011;37259;49.972;19.850;2024-01-25T05:55:25;4.9;;;2.3;;
51194;SDS011;37259;49.972;19.850;2024-01-25T05:56:25;4.9;;;2.3;;
51194;SDS011;37259;49.972;19.850;2024-01-25T05:57:25;4.9;;;2.3;;
51194;SDS011;37259;49.972;19.850;2024-01-25T05:58:25;4.9;;;2.3;;
51194;SDS011;37259;49.972;19.850;2024-01-25T05:59:25;4.9;;;2.3;;
51194;SDS011;37259;49.972;19.850;2024-01-25T06:00:25;4.9;;;2.3;;
51194;SDS011;37259;49.972;19.850;2024-01-25T06:01:25;4.9;;;2.3;;
51194;SDS011;37259;49.972;19.850;2024-01-25T06:02:25;4.9;;;2.3;;
51194;SDS011;37259;49.972;19.850;2024-01-25T06:03:25;4.9;;;2.3;;
51194;SDS011;37259;49.972;19.850;2024-01-25T06:04:25;4.9;;;2.3;;
51194;SDS011;37259;49.972;19.850;2024-01-25T06:05:25;4.9;;;2.3;;
51194;SDS011;37259;49.972;19.850;2024-01-25T06:06:25;4.9;;;2.3;;
51194;SDS011;37259;49.972;19.850;2024-01-25T06:07:25;4.9;;;2.3;;
51194;SDS011;37259;49.972;19.850;2024-01-25T06:08:25;4.9;;;2.3;;